sensor_id;sensor_type;location;lat;lon;timestamp;P1;durP1;ratioP1;P2;durP2;ratioP2
10343;SDS011;5217;43.960;10.954;2023-10-31T00:00:01;6.78;;;2.65;;
10343;SDS011;5217;43.960;10.954;2023-10-31T00:02:31;8.15;;;2.95;;
10343;SDS011;5217;43.960;10.954;2023-10-31T00:05:00;9.63;;;2.70;;
10343;SDS011;5217;43.960;10.954;2023-10-31T00:07:28;10.55;;;3.08;;
10343;SDS011;5217;43.960;10.954;2023-10-31T00:10:00;8.50;;;2.88;;
10343;SDS011;5217;43.960;10.954;2023-10-31T00:12:30;11.57;;;3.42;;
10343;SDS011;5217;43.960;10.954;2023-10-31T00:15:00;10.05;;;3.20;;
10343;SDS011;5217;43.960;10.954;2023-10-31T00:17:29;10.52;;;3.78;;
10343;SDS011;5217;43.960;10.954;2023-10-31T00:19:57;8.38;;;2.92;;
10343;SDS011;5217;43.960;10.954;2023-10-31T00:22:27;9.90;;;3.25;;
10343;SDS011;5217;43.960;10.954;2023-10-31T00:24:55;10.13;;;3.40;;
10343;SDS011;5217;43.960;10.954;2023-10-31T00:27:25;9.30;;;2.72;;
10343;SDS011;5217;43.960;10.954;2023-10-31T00:29:54;8.23;;;2.63;;
10343;SDS011;5217;43.960;10.954;2023-10-31T00:32:22;8.93;;;2.83;;
10343;SDS011;5217;43.960;10.954;2023-10-31T00:34:52;6.07;;;2.45;;
10343;SDS011;5217;43.960;10.954;2023-10-31T00:37:20;7.88;;;2.58;;
10343;SDS011;5217;43.960;10.954;2023-10-31T00:39:49;5.00;;;2.33;;
10343;SDS011;5217;43.960;10.954;2023-10-31T00:42:18;5.10;;;2.30;;
10343;SDS011;5217;43.960;10.954;2023-10-31T00:44:48;4.05;;;2.03;;
10343;SDS011;5217;43.960;10.954;2023-10-31T00:47:17;5.00;;;2.45;;
10343;SDS011;5217;43.960;10.954;2023-10-31T00:49:46;9.48;;;2.90;;
10343;SDS011;5217;43.960;10.954;2023-10-31T00:52:14;9.15;;;3.08;;
10343;SDS011;5217;43.960;10.954;2023-10-31T00:54:43;6.25;;;2.55;;
10343;SDS011;5217;43.960;10.954;2023-10-31T00:57:12;6.43;;;2.20;;
10343;SDS011;5217;43.960;10.954;2023-10-31T00:59:40;3.58;;;1.92;;
10343;SDS011;5217;43.960;10.954;2023-10-31T01:02:10;5.30;;;2.20;;
10343;SDS011;5217;43.960;10.954;2023-10-31T01:04:39;7.22;;;2.33;;
10343;SDS011;5217;43.960;10.954;2023-10-31T01:07:07;7.95;;;2.88;;
10343;SDS011;5217;43.960;10.954;2023-10-31T01:09:38;6.15;;;2.30;;
10343;SDS011;5217;43.960;10.954;2023-10-31T01:12:07;5.45;;;2.63;;
10343;SDS011;5217;43.960;10.954;2023-10-31T01:14:36;6.05;;;2.40;;
10343;SDS011;5217;43.960;10.954;2023-10-31T01:17:05;9.20;;;2.42;;
10343;SDS011;5217;43.960;10.954;2023-10-31T01:19:35;6.95;;;2.72;;
10343;SDS011;5217;43.960;10.954;2023-10-31T01:22:04;4.28;;;2.30;;
10343;SDS011;5217;43.960;10.954;2023-10-31T01:24:34;6.28;;;2.40;;
10343;SDS011;5217;43.960;10.954;2023-10-31T01:27:03;8.77;;;2.72;;
10343;SDS011;5217;43.960;10.954;2023-10-31T01:29:32;5.55;;;2.28;;
10343;SDS011;5217;43.960;10.954;2023-10-31T01:32:00;8.05;;;2.85;;
10343;SDS011;5217;43.960;10.954;2023-10-31T01:34:40;5.85;;;2.60;;
10343;SDS011;5217;43.960;10.954;2023-10-31T01:37:09;7.50;;;2.92;;
10343;SDS011;5217;43.960;10.954;2023-10-31T01:39:37;8.82;;;3.25;;
10343;SDS011;5217;43.960;10.954;2023-10-31T01:42:06;6.95;;;2.58;;
10343;SDS011;5217;43.960;10.954;2023-10-31T01:44:35;6.45;;;2.58;;
10343;SDS011;5217;43.960;10.954;2023-10-31T01:47:04;8.68;;;3.00;;
10343;SDS011;5217;43.960;10.954;2023-10-31T01:49:33;7.97;;;3.17;;
10343;SDS011;5217;43.960;10.954;2023-10-31T01:52:04;8.05;;;3.10;;
10343;SDS011;5217;43.960;10.954;2023-10-31T01:54:34;11.25;;;3.00;;
10343;SDS011;5217;43.960;10.954;2023-10-31T01:57:03;7.45;;;2.90;;
10343;SDS011;5217;43.960;10.954;2023-10-31T01:59:33;5.57;;;2.40;;
10343;SDS011;5217;43.960;10.954;2023-10-31T02:02:02;7.25;;;2.50;;
10343;SDS011;5217;43.960;10.954;2023-10-31T02:04:31;6.63;;;2.75;;
10343;SDS011;5217;43.960;10.954;2023-10-31T02:07:00;9.40;;;2.95;;
10343;SDS011;5217;43.960;10.954;2023-10-31T02:09:30;8.10;;;2.65;;
10343;SDS011;5217;43.960;10.954;2023-10-31T02:11:59;9.05;;;2.70;;
10343;SDS011;5217;43.960;10.954;2023-10-31T02:14:28;10.55;;;3.22;;
10343;SDS011;5217;43.960;10.954;2023-10-31T02:16:56;7.25;;;2.97;;
10343;SDS011;5217;43.960;10.954;2023-10-31T02:19:25;10.27;;;3.25;;
10343;SDS011;5217;43.960;10.954;2023-10-31T02:21:55;11.00;;;3.42;;
10343;SDS011;5217;43.960;10.954;2023-10-31T02:24:24;8.95;;;3.05;;
10343;SDS011;5217;43.960;10.954;2023-10-31T02:26:53;7.05;;;2.38;;
10343;SDS011;5217;43.960;10.954;2023-10-31T02:29:21;8.75;;;3.05;;
10343;SDS011;5217;43.960;10.954;2023-10-31T02:31:50;11.25;;;3.25;;
10343;SDS011;5217;43.960;10.954;2023-10-31T02:34:19;8.10;;;3.35;;
10343;SDS011;5217;43.960;10.954;2023-10-31T02:36:48;6.85;;;2.90;;
10343;SDS011;5217;43.960;10.954;2023-10-31T02:39:18;12.07;;;3.20;;
10343;SDS011;5217;43.960;10.954;2023-10-31T02:41:46;7.70;;;2.80;;
10343;SDS011;5217;43.960;10.954;2023-10-31T02:44:15;7.82;;;2.95;;
10343;SDS011;5217;43.960;10.954;2023-10-31T02:46:44;7.22;;;2.80;;
10343;SDS011;5217;43.960;10.954;2023-10-31T02:49:13;9.02;;;2.85;;
10343;SDS011;5217;43.960;10.954;2023-10-31T02:51:41;9.35;;;3.20;;
10343;SDS011;5217;43.960;10.954;2023-10-31T02:54:10;6.18;;;2.65;;
10343;SDS011;5217;43.960;10.954;2023-10-31T02:56:40;11.88;;;3.30;;
10343;SDS011;5217;43.960;10.954;2023-10-31T02:59:08;6.65;;;2.78;;
10343;SDS011;5217;43.960;10.954;2023-10-31T03:01:38;8.82;;;3.25;;
10343;SDS011;5217;43.960;10.954;2023-10-31T03:04:07;7.22;;;3.00;;
10343;SDS011;5217;43.960;10.954;2023-10-31T03:06:35;10.93;;;3.33;;
10343;SDS011;5217;43.960;10.954;2023-10-31T03:09:05;9.93;;;3.25;;
10343;SDS011;5217;43.960;10.954;2023-10-31T03:11:34;9.15;;;2.97;;
10343;SDS011;5217;43.960;10.954;2023-10-31T03:14:04;9.32;;;3.45;;
10343;SDS011;5217;43.960;10.954;2023-10-31T03:16:33;7.00;;;3.00;;
10343;SDS011;5217;43.960;10.954;2023-10-31T03:19:02;7.65;;;2.92;;
10343;SDS011;5217;43.960;10.954;2023-10-31T03:21:30;9.23;;;3.03;;
10343;SDS011;5217;43.960;10.954;2023-10-31T03:23:59;9.13;;;2.92;;
10343;SDS011;5217;43.960;10.954;2023-10-31T03:26:28;10.50;;;2.55;;
10343;SDS011;5217;43.960;10.954;2023-10-31T03:28:56;7.63;;;2.58;;
10343;SDS011;5217;43.960;10.954;2023-10-31T03:31:26;9.40;;;2.75;;
10343;SDS011;5217;43.960;10.954;2023-10-31T03:33:55;8.50;;;3.00;;
10343;SDS011;5217;43.960;10.954;2023-10-31T03:36:24;9.85;;;3.00;;
10343;SDS011;5217;43.960;10.954;2023-10-31T03:38:52;7.30;;;2.60;;
10343;SDS011;5217;43.960;10.954;2023-10-31T03:41:21;5.20;;;2.30;;
10343;SDS011;5217;43.960;10.954;2023-10-31T03:43:49;8.50;;;2.33;;
10343;SDS011;5217;43.960;10.954;2023-10-31T03:46:18;6.80;;;2.60;;
10343;SDS011;5217;43.960;10.954;2023-10-31T03:48:48;5.82;;;2.47;;
10343;SDS011;5217;43.960;10.954;2023-10-31T03:51:17;7.85;;;2.58;;
10343;SDS011;5217;43.960;10.954;2023-10-31T03:53:45;10.02;;;2.75;;
10343;SDS011;5217;43.960;10.954;2023-10-31T03:56:14;8.85;;;2.55;;
10343;SDS011;5217;43.960;10.954;2023-10-31T03:58:43;9.05;;;2.95;;
10343;SDS011;5217;43.960;10.954;2023-10-31T04:01:12;9.10;;;2.80;;
10343;SDS011;5217;43.960;10.954;2023-10-31T04:03:41;8.88;;;2.60;;
10343;SDS011;5217;43.960;10.954;2023-10-31T04:06:12;9.23;;;3.17;;
10343;SDS011;5217;43.960;10.954;2023-10-31T04:08:40;13.23;;;3.25;;
10343;SDS011;5217;43.960;10.954;2023-10-31T04:11:09;11.13;;;3.28;;
10343;SDS011;5217;43.960;10.954;2023-10-31T04:13:38;8.93;;;2.70;;
10343;SDS011;5217;43.960;10.954;2023-10-31T04:16:07;8.00;;;2.78;;
10343;SDS011;5217;43.960;10.954;2023-10-31T04:18:36;11.93;;;3.20;;
10343;SDS011;5217;43.960;10.954;2023-10-31T04:21:05;9.93;;;2.72;;
10343;SDS011;5217;43.960;10.954;2023-10-31T04:23:35;10.65;;;2.90;;
10343;SDS011;5217;43.960;10.954;2023-10-31T04:26:05;9.25;;;3.00;;
10343;SDS011;5217;43.960;10.954;2023-10-31T04:28:34;7.20;;;2.28;;
10343;SDS011;5217;43.960;10.954;2023-10-31T04:31:03;12.10;;;3.35;;
10343;SDS011;5217;43.960;10.954;2023-10-31T04:33:31;9.98;;;2.97;;
10343;SDS011;5217;43.960;10.954;2023-10-31T04:36:00;10.35;;;3.10;;
10343;SDS011;5217;43.960;10.954;2023-10-31T04:38:29;9.85;;;2.92;;
10343;SDS011;5217;43.960;10.954;2023-10-31T04:40:59;9.52;;;2.78;;
10343;SDS011;5217;43.960;10.954;2023-10-31T04:43:27;9.30;;;3.28;;
10343;SDS011;5217;43.960;10.954;2023-10-31T04:45:56;7.93;;;2.55;;
10343;SDS011;5217;43.960;10.954;2023-10-31T04:48:25;8.65;;;2.50;;
10343;SDS011;5217;43.960;10.954;2023-10-31T04:50:53;9.80;;;2.58;;
10343;SDS011;5217;43.960;10.954;2023-10-31T04:53:23;8.63;;;2.53;;
10343;SDS011;5217;43.960;10.954;2023-10-31T04:55:51;5.40;;;2.15;;
10343;SDS011;5217;43.960;10.954;2023-10-31T04:58:21;6.85;;;2.35;;
10343;SDS011;5217;43.960;10.954;2023-10-31T05:00:50;11.25;;;2.83;;
10343;SDS011;5217;43.960;10.954;2023-10-31T05:03:18;11.27;;;3.00;;
10343;SDS011;5217;43.960;10.954;2023-10-31T05:05:47;10.38;;;3.20;;
10343;SDS011;5217;43.960;10.954;2023-10-31T05:08:16;12.70;;;3.10;;
10343;SDS011;5217;43.960;10.954;2023-10-31T05:10:45;8.40;;;3.03;;
10343;SDS011;5217;43.960;10.954;2023-10-31T05:13:14;9.10;;;2.90;;
10343;SDS011;5217;43.960;10.954;2023-10-31T05:15:44;11.40;;;3.15;;
10343;SDS011;5217;43.960;10.954;2023-10-31T05:18:13;7.10;;;2.47;;
10343;SDS011;5217;43.960;10.954;2023-10-31T05:20:41;7.47;;;2.40;;
10343;SDS011;5217;43.960;10.954;2023-10-31T05:23:10;10.40;;;2.97;;
10343;SDS011;5217;43.960;10.954;2023-10-31T05:25:39;5.38;;;2.58;;
10343;SDS011;5217;43.960;10.954;2023-10-31T05:28:08;11.75;;;2.85;;
10343;SDS011;5217;43.960;10.954;2023-10-31T05:30:36;12.82;;;3.00;;
10343;SDS011;5217;43.960;10.954;2023-10-31T05:33:06;11.80;;;3.00;;
10343;SDS011;5217;43.960;10.954;2023-10-31T05:35:36;8.05;;;2.40;;
10343;SDS011;5217;43.960;10.954;2023-10-31T05:38:05;8.75;;;2.58;;
10343;SDS011;5217;43.960;10.954;2023-10-31T05:40:33;6.55;;;2.60;;
10343;SDS011;5217;43.960;10.954;2023-10-31T05:43:02;10.48;;;2.90;;
10343;SDS011;5217;43.960;10.954;2023-10-31T05:45:31;7.25;;;2.65;;
10343;SDS011;5217;43.960;10.954;2023-10-31T05:48:00;7.25;;;2.53;;
10343;SDS011;5217;43.960;10.954;2023-10-31T05:50:32;8.05;;;3.22;;
10343;SDS011;5217;43.960;10.954;2023-10-31T05:53:00;9.73;;;3.00;;
10343;SDS011;5217;43.960;10.954;2023-10-31T05:55:29;8.30;;;3.00;;
10343;SDS011;5217;43.960;10.954;2023-10-31T05:57:57;9.70;;;3.17;;
10343;SDS011;5217;43.960;10.954;2023-10-31T06:00:26;12.05;;;3.25;;
10343;SDS011;5217;43.960;10.954;2023-10-31T06:02:55;15.52;;;3.55;;
10343;SDS011;5217;43.960;10.954;2023-10-31T06:05:23;24.70;;;4.00;;
10343;SDS011;5217;43.960;10.954;2023-10-31T06:07:54;16.75;;;3.53;;
10343;SDS011;5217;43.960;10.954;2023-10-31T06:10:22;10.23;;;3.45;;
10343;SDS011;5217;43.960;10.954;2023-10-31T06:12:51;8.55;;;3.00;;
10343;SDS011;5217;43.960;10.954;2023-10-31T06:15:19;9.35;;;2.72;;
10343;SDS011;5217;43.960;10.954;2023-10-31T06:17:48;6.68;;;2.42;;
10343;SDS011;5217;43.960;10.954;2023-10-31T06:20:17;6.30;;;2.47;;
10343;SDS011;5217;43.960;10.954;2023-10-31T06:22:45;6.43;;;2.88;;
10343;SDS011;5217;43.960;10.954;2023-10-31T06:25:15;9.43;;;2.90;;
10343;SDS011;5217;43.960;10.954;2023-10-31T06:27:44;8.60;;;2.78;;
10343;SDS011;5217;43.960;10.954;2023-10-31T06:30:13;7.68;;;2.90;;
10343;SDS011;5217;43.960;10.954;2023-10-31T06:32:53;6.60;;;2.50;;
10343;SDS011;5217;43.960;10.954;2023-10-31T06:35:22;9.63;;;2.22;;
10343;SDS011;5217;43.960;10.954;2023-10-31T06:37:56;11.13;;;3.25;;
10343;SDS011;5217;43.960;10.954;2023-10-31T06:40:26;10.00;;;3.45;;
10343;SDS011;5217;43.960;10.954;2023-10-31T06:42:55;8.63;;;3.17;;
10343;SDS011;5217;43.960;10.954;2023-10-31T06:45:24;10.88;;;3.13;;
10343;SDS011;5217;43.960;10.954;2023-10-31T06:47:52;7.05;;;2.92;;
10343;SDS011;5217;43.960;10.954;2023-10-31T06:50:21;10.05;;;3.17;;
10343;SDS011;5217;43.960;10.954;2023-10-31T06:52:50;9.63;;;3.05;;
10343;SDS011;5217;43.960;10.954;2023-10-31T06:55:19;12.07;;;3.33;;
10343;SDS011;5217;43.960;10.954;2023-10-31T06:57:49;9.25;;;2.97;;
10343;SDS011;5217;43.960;10.954;2023-10-31T07:00:18;8.25;;;2.72;;
10343;SDS011;5217;43.960;10.954;2023-10-31T07:02:47;11.15;;;3.47;;
10343;SDS011;5217;43.960;10.954;2023-10-31T07:05:16;8.90;;;3.67;;
10343;SDS011;5217;43.960;10.954;2023-10-31T07:07:46;10.93;;;3.50;;
10343;SDS011;5217;43.960;10.954;2023-10-31T07:10:15;12.23;;;3.40;;
10343;SDS011;5217;43.960;10.954;2023-10-31T07:12:44;44.70;;;5.43;;
10343;SDS011;5217;43.960;10.954;2023-10-31T07:15:14;13.45;;;3.33;;
10343;SDS011;5217;43.960;10.954;2023-10-31T07:17:43;11.68;;;3.33;;
10343;SDS011;5217;43.960;10.954;2023-10-31T07:20:11;9.52;;;3.55;;
10343;SDS011;5217;43.960;10.954;2023-10-31T07:22:40;10.40;;;3.63;;
10343;SDS011;5217;43.960;10.954;2023-10-31T07:25:10;10.27;;;3.75;;
10343;SDS011;5217;43.960;10.954;2023-10-31T07:27:39;8.50;;;3.03;;
10343;SDS011;5217;43.960;10.954;2023-10-31T07:30:07;7.70;;;3.17;;
10343;SDS011;5217;43.960;10.954;2023-10-31T07:32:38;10.65;;;3.22;;
10343;SDS011;5217;43.960;10.954;2023-10-31T07:35:07;10.90;;;3.20;;
10343;SDS011;5217;43.960;10.954;2023-10-31T07:37:36;9.23;;;2.90;;
10343;SDS011;5217;43.960;10.954;2023-10-31T07:40:05;8.57;;;3.40;;
10343;SDS011;5217;43.960;10.954;2023-10-31T07:42:34;10.38;;;3.38;;
10343;SDS011;5217;43.960;10.954;2023-10-31T07:45:03;8.60;;;3.17;;
10343;SDS011;5217;43.960;10.954;2023-10-31T07:47:32;12.10;;;3.97;;
10343;SDS011;5217;43.960;10.954;2023-10-31T07:50:03;11.95;;;3.47;;
10343;SDS011;5217;43.960;10.954;2023-10-31T07:52:32;12.50;;;4.00;;
10343;SDS011;5217;43.960;10.954;2023-10-31T07:55:01;13.05;;;3.97;;
10343;SDS011;5217;43.960;10.954;2023-10-31T07:57:30;10.25;;;3.95;;
10343;SDS011;5217;43.960;10.954;2023-10-31T07:59:58;13.20;;;4.32;;
10343;SDS011;5217;43.960;10.954;2023-10-31T08:02:27;13.45;;;3.97;;
10343;SDS011;5217;43.960;10.954;2023-10-31T08:04:55;11.10;;;3.58;;
10343;SDS011;5217;43.960;10.954;2023-10-31T08:07:25;9.68;;;3.85;;
10343;SDS011;5217;43.960;10.954;2023-10-31T08:09:56;12.07;;;4.45;;
10343;SDS011;5217;43.960;10.954;2023-10-31T08:12:25;15.20;;;3.78;;
10343;SDS011;5217;43.960;10.954;2023-10-31T08:14:53;9.07;;;3.83;;
10343;SDS011;5217;43.960;10.954;2023-10-31T08:17:22;11.63;;;4.25;;
10343;SDS011;5217;43.960;10.954;2023-10-31T08:19:51;14.63;;;4.57;;
10343;SDS011;5217;43.960;10.954;2023-10-31T08:22:20;17.27;;;5.07;;
10343;SDS011;5217;43.960;10.954;2023-10-31T08:24:50;15.57;;;4.30;;
10343;SDS011;5217;43.960;10.954;2023-10-31T08:27:19;10.40;;;4.00;;
10343;SDS011;5217;43.960;10.954;2023-10-31T08:29:48;13.27;;;4.25;;
10343;SDS011;5217;43.960;10.954;2023-10-31T08:32:16;10.98;;;4.43;;
10343;SDS011;5217;43.960;10.954;2023-10-31T08:34:46;10.02;;;4.00;;
10343;SDS011;5217;43.960;10.954;2023-10-31T08:37:14;13.02;;;4.50;;
10343;SDS011;5217;43.960;10.954;2023-10-31T08:39:43;15.18;;;4.85;;
10343;SDS011;5217;43.960;10.954;2023-10-31T08:42:13;15.77;;;4.75;;
10343;SDS011;5217;43.960;10.954;2023-10-31T08:44:42;13.25;;;4.90;;
10343;SDS011;5217;43.960;10.954;2023-10-31T08:47:10;17.65;;;5.47;;
10343;SDS011;5217;43.960;10.954;2023-10-31T08:49:39;14.75;;;5.28;;
10343;SDS011;5217;43.960;10.954;2023-10-31T08:52:08;14.63;;;4.63;;
10343;SDS011;5217;43.960;10.954;2023-10-31T08:54:36;15.32;;;5.03;;
10343;SDS011;5217;43.960;10.954;2023-10-31T08:57:05;11.63;;;4.22;;
10343;SDS011;5217;43.960;10.954;2023-10-31T08:59:35;15.38;;;5.03;;
10343;SDS011;5217;43.960;10.954;2023-10-31T09:02:04;29.85;;;6.00;;
10343;SDS011;5217;43.960;10.954;2023-10-31T09:04:32;13.95;;;4.53;;
10343;SDS011;5217;43.960;10.954;2023-10-31T09:07:01;11.90;;;3.92;;
10343;SDS011;5217;43.960;10.954;2023-10-31T09:09:30;14.15;;;4.35;;
10343;SDS011;5217;43.960;10.954;2023-10-31T09:11:58;11.93;;;4.00;;
10343;SDS011;5217;43.960;10.954;2023-10-31T09:14:27;13.20;;;4.60;;
10343;SDS011;5217;43.960;10.954;2023-10-31T09:16:57;14.93;;;4.40;;
10343;SDS011;5217;43.960;10.954;2023-10-31T09:19:26;16.35;;;4.70;;
10343;SDS011;5217;43.960;10.954;2023-10-31T09:21:54;15.00;;;4.20;;
10343;SDS011;5217;43.960;10.954;2023-10-31T09:24:23;12.13;;;4.25;;
10343;SDS011;5217;43.960;10.954;2023-10-31T09:26:52;8.55;;;3.58;;
10343;SDS011;5217;43.960;10.954;2023-10-31T09:29:21;9.63;;;3.95;;
10343;SDS011;5217;43.960;10.954;2023-10-31T09:31:55;12.15;;;4.03;;
10343;SDS011;5217;43.960;10.954;2023-10-31T09:34:26;9.82;;;3.83;;
10343;SDS011;5217;43.960;10.954;2023-10-31T09:36:54;17.13;;;4.95;;
10343;SDS011;5217;43.960;10.954;2023-10-31T09:39:23;11.07;;;3.72;;
10343;SDS011;5217;43.960;10.954;2023-10-31T09:41:51;14.32;;;3.67;;
10343;SDS011;5217;43.960;10.954;2023-10-31T09:44:20;12.38;;;3.97;;
10343;SDS011;5217;43.960;10.954;2023-10-31T09:46:50;13.73;;;4.10;;
10343;SDS011;5217;43.960;10.954;2023-10-31T09:49:21;14.10;;;4.35;;
10343;SDS011;5217;43.960;10.954;2023-10-31T09:51:51;13.82;;;4.32;;
10343;SDS011;5217;43.960;10.954;2023-10-31T09:54:20;13.35;;;4.00;;
10343;SDS011;5217;43.960;10.954;2023-10-31T09:56:50;12.75;;;4.00;;
10343;SDS011;5217;43.960;10.954;2023-10-31T09:59:19;13.75;;;4.40;;
10343;SDS011;5217;43.960;10.954;2023-10-31T10:01:48;12.15;;;3.85;;
10343;SDS011;5217;43.960;10.954;2023-10-31T10:04:16;14.70;;;4.13;;
10343;SDS011;5217;43.960;10.954;2023-10-31T10:06:51;10.93;;;3.42;;
10343;SDS011;5217;43.960;10.954;2023-10-31T10:09:21;11.85;;;3.85;;
10343;SDS011;5217;43.960;10.954;2023-10-31T10:11:49;11.65;;;3.78;;
10343;SDS011;5217;43.960;10.954;2023-10-31T10:14:22;8.93;;;3.40;;
10343;SDS011;5217;43.960;10.954;2023-10-31T10:16:51;9.38;;;3.50;;
10343;SDS011;5217;43.960;10.954;2023-10-31T10:19:20;11.93;;;3.70;;
10343;SDS011;5217;43.960;10.954;2023-10-31T10:21:51;11.48;;;4.15;;
10343;SDS011;5217;43.960;10.954;2023-10-31T10:24:21;12.93;;;3.78;;
10343;SDS011;5217;43.960;10.954;2023-10-31T10:26:51;9.75;;;3.30;;
10343;SDS011;5217;43.960;10.954;2023-10-31T10:29:20;11.88;;;3.70;;
10343;SDS011;5217;43.960;10.954;2023-10-31T10:31:48;8.13;;;3.05;;
10343;SDS011;5217;43.960;10.954;2023-10-31T10:34:17;8.68;;;3.30;;
10343;SDS011;5217;43.960;10.954;2023-10-31T10:36:46;11.18;;;3.30;;
10343;SDS011;5217;43.960;10.954;2023-10-31T10:39:19;8.27;;;3.13;;
10343;SDS011;5217;43.960;10.954;2023-10-31T10:41:52;9.48;;;3.10;;
10343;SDS011;5217;43.960;10.954;2023-10-31T10:44:25;7.82;;;3.25;;
10343;SDS011;5217;43.960;10.954;2023-10-31T10:47:01;7.65;;;3.00;;
10343;SDS011;5217;43.960;10.954;2023-10-31T10:49:32;7.18;;;3.05;;
10343;SDS011;5217;43.960;10.954;2023-10-31T10:52:06;9.32;;;3.40;;
10343;SDS011;5217;43.960;10.954;2023-10-31T10:54:48;11.40;;;3.45;;
10343;SDS011;5217;43.960;10.954;2023-10-31T10:57:26;10.18;;;3.60;;
10343;SDS011;5217;43.960;10.954;2023-10-31T11:00:02;11.45;;;3.15;;
10343;SDS011;5217;43.960;10.954;2023-10-31T11:02:34;13.93;;;3.58;;
10343;SDS011;5217;43.960;10.954;2023-10-31T11:05:05;8.52;;;3.15;;
10343;SDS011;5217;43.960;10.954;2023-10-31T11:07:38;9.07;;;2.75;;
10343;SDS011;5217;43.960;10.954;2023-10-31T11:10:12;7.53;;;2.90;;
10343;SDS011;5217;43.960;10.954;2023-10-31T11:12:42;8.57;;;2.95;;
10343;SDS011;5217;43.960;10.954;2023-10-31T11:15:11;7.25;;;2.70;;
10343;SDS011;5217;43.960;10.954;2023-10-31T11:17:43;9.10;;;3.38;;
10343;SDS011;5217;43.960;10.954;2023-10-31T11:20:13;12.38;;;2.97;;
10343;SDS011;5217;43.960;10.954;2023-10-31T11:22:44;11.90;;;3.40;;
10343;SDS011;5217;43.960;10.954;2023-10-31T11:25:17;9.60;;;2.85;;
10343;SDS011;5217;43.960;10.954;2023-10-31T11:28:10;11.65;;;3.35;;
10343;SDS011;5217;43.960;10.954;2023-10-31T11:30:40;12.00;;;3.60;;
10343;SDS011;5217;43.960;10.954;2023-10-31T11:33:13;13.10;;;3.97;;
10343;SDS011;5217;43.960;10.954;2023-10-31T11:35:42;8.38;;;2.92;;
10343;SDS011;5217;43.960;10.954;2023-10-31T11:38:12;11.35;;;3.67;;
10343;SDS011;5217;43.960;10.954;2023-10-31T11:40:58;10.57;;;2.95;;
10343;SDS011;5217;43.960;10.954;2023-10-31T11:46:22;9.88;;;3.08;;
10343;SDS011;5217;43.960;10.954;2023-10-31T11:48:52;7.80;;;3.03;;
10343;SDS011;5217;43.960;10.954;2023-10-31T11:51:23;8.95;;;2.90;;
10343;SDS011;5217;43.960;10.954;2023-10-31T11:53:51;6.20;;;2.60;;
10343;SDS011;5217;43.960;10.954;2023-10-31T11:56:22;8.73;;;2.88;;
10343;SDS011;5217;43.960;10.954;2023-10-31T11:58:55;11.35;;;3.00;;
10343;SDS011;5217;43.960;10.954;2023-10-31T12:01:24;10.63;;;3.28;;
10343;SDS011;5217;43.960;10.954;2023-10-31T12:03:53;10.00;;;3.22;;
10343;SDS011;5217;43.960;10.954;2023-10-31T12:06:21;11.38;;;3.20;;
10343;SDS011;5217;43.960;10.954;2023-10-31T12:08:50;7.30;;;2.70;;
10343;SDS011;5217;43.960;10.954;2023-10-31T12:11:19;10.75;;;3.58;;
10343;SDS011;5217;43.960;10.954;2023-10-31T12:13:54;13.43;;;3.42;;
10343;SDS011;5217;43.960;10.954;2023-10-31T12:16:24;10.23;;;2.97;;
10343;SDS011;5217;43.960;10.954;2023-10-31T12:18:54;9.90;;;3.25;;
10343;SDS011;5217;43.960;10.954;2023-10-31T12:21:36;8.75;;;3.30;;
10343;SDS011;5217;43.960;10.954;2023-10-31T12:24:06;5.15;;;2.50;;
10343;SDS011;5217;43.960;10.954;2023-10-31T12:26:37;7.32;;;2.83;;
10343;SDS011;5217;43.960;10.954;2023-10-31T12:29:09;7.65;;;2.67;;
10343;SDS011;5217;43.960;10.954;2023-10-31T12:31:41;8.50;;;2.90;;
10343;SDS011;5217;43.960;10.954;2023-10-31T12:34:12;8.77;;;2.72;;
10343;SDS011;5217;43.960;10.954;2023-10-31T12:36:41;10.45;;;3.00;;
10343;SDS011;5217;43.960;10.954;2023-10-31T12:39:11;5.70;;;2.58;;
10343;SDS011;5217;43.960;10.954;2023-10-31T12:41:42;9.10;;;3.17;;
10343;SDS011;5217;43.960;10.954;2023-10-31T12:44:11;8.75;;;3.13;;
10343;SDS011;5217;43.960;10.954;2023-10-31T12:46:45;8.80;;;2.95;;
10343;SDS011;5217;43.960;10.954;2023-10-31T12:49:16;6.10;;;2.67;;
10343;SDS011;5217;43.960;10.954;2023-10-31T12:51:55;9.52;;;3.22;;
10343;SDS011;5217;43.960;10.954;2023-10-31T12:54:29;9.30;;;3.00;;
10343;SDS011;5217;43.960;10.954;2023-10-31T12:57:00;7.82;;;2.75;;
10343;SDS011;5217;43.960;10.954;2023-10-31T12:59:31;8.05;;;2.50;;
10343;SDS011;5217;43.960;10.954;2023-10-31T13:02:00;7.40;;;2.75;;
10343;SDS011;5217;43.960;10.954;2023-10-31T13:04:30;4.47;;;2.10;;
10343;SDS011;5217;43.960;10.954;2023-10-31T13:07:00;9.27;;;3.05;;
10343;SDS011;5217;43.960;10.954;2023-10-31T13:09:30;7.53;;;2.83;;
10343;SDS011;5217;43.960;10.954;2023-10-31T13:12:04;7.45;;;2.53;;
10343;SDS011;5217;43.960;10.954;2023-10-31T13:14:34;5.32;;;2.28;;
10343;SDS011;5217;43.960;10.954;2023-10-31T13:17:04;7.80;;;2.80;;
10343;SDS011;5217;43.960;10.954;2023-10-31T13:19:33;6.10;;;2.35;;
10343;SDS011;5217;43.960;10.954;2023-10-31T13:22:02;7.85;;;2.70;;
10343;SDS011;5217;43.960;10.954;2023-10-31T13:24:30;6.68;;;2.85;;
10343;SDS011;5217;43.960;10.954;2023-10-31T13:26:59;6.53;;;2.72;;
10343;SDS011;5217;43.960;10.954;2023-10-31T13:29:31;7.88;;;2.83;;
10343;SDS011;5217;43.960;10.954;2023-10-31T13:31:59;7.60;;;2.80;;
10343;SDS011;5217;43.960;10.954;2023-10-31T13:34:30;8.93;;;2.78;;
10343;SDS011;5217;43.960;10.954;2023-10-31T13:36:59;7.20;;;2.70;;
10343;SDS011;5217;43.960;10.954;2023-10-31T13:39:28;9.57;;;3.05;;
10343;SDS011;5217;43.960;10.954;2023-10-31T13:41:57;7.72;;;3.00;;
10343;SDS011;5217;43.960;10.954;2023-10-31T13:44:25;8.27;;;2.92;;
10343;SDS011;5217;43.960;10.954;2023-10-31T13:46:55;7.32;;;2.33;;
10343;SDS011;5217;43.960;10.954;2023-10-31T13:49:24;9.25;;;3.00;;
10343;SDS011;5217;43.960;10.954;2023-10-31T13:51:53;9.07;;;2.88;;
10343;SDS011;5217;43.960;10.954;2023-10-31T13:54:21;9.43;;;2.63;;
10343;SDS011;5217;43.960;10.954;2023-10-31T13:56:50;6.85;;;2.78;;
10343;SDS011;5217;43.960;10.954;2023-10-31T13:59:18;7.38;;;2.88;;
10343;SDS011;5217;43.960;10.954;2023-10-31T14:01:47;5.95;;;2.50;;
10343;SDS011;5217;43.960;10.954;2023-10-31T14:04:17;9.32;;;2.95;;
10343;SDS011;5217;43.960;10.954;2023-10-31T14:06:46;8.13;;;2.70;;
10343;SDS011;5217;43.960;10.954;2023-10-31T14:09:15;9.25;;;2.80;;
10343;SDS011;5217;43.960;10.954;2023-10-31T14:11:44;7.18;;;2.85;;
10343;SDS011;5217;43.960;10.954;2023-10-31T14:14:12;8.55;;;3.00;;
10343;SDS011;5217;43.960;10.954;2023-10-31T14:16:41;9.45;;;4.20;;
10343;SDS011;5217;43.960;10.954;2023-10-31T14:19:11;11.00;;;3.78;;
10343;SDS011;5217;43.960;10.954;2023-10-31T14:21:42;5.63;;;2.65;;
10343;SDS011;5217;43.960;10.954;2023-10-31T14:24:10;5.97;;;2.40;;
10343;SDS011;5217;43.960;10.954;2023-10-31T14:26:39;9.20;;;2.60;;
10343;SDS011;5217;43.960;10.954;2023-10-31T14:29:10;9.73;;;3.13;;
10343;SDS011;5217;43.960;10.954;2023-10-31T14:31:39;6.88;;;2.50;;
10343;SDS011;5217;43.960;10.954;2023-10-31T14:34:09;6.45;;;2.60;;
10343;SDS011;5217;43.960;10.954;2023-10-31T14:36:38;7.50;;;2.33;;
10343;SDS011;5217;43.960;10.954;2023-10-31T14:39:08;9.68;;;2.83;;
10343;SDS011;5217;43.960;10.954;2023-10-31T14:41:38;9.05;;;3.05;;
10343;SDS011;5217;43.960;10.954;2023-10-31T14:44:07;5.93;;;2.60;;
10343;SDS011;5217;43.960;10.954;2023-10-31T14:46:36;10.02;;;3.17;;
10343;SDS011;5217;43.960;10.954;2023-10-31T14:49:06;8.00;;;2.95;;
10343;SDS011;5217;43.960;10.954;2023-10-31T14:51:35;9.20;;;2.85;;
10343;SDS011;5217;43.960;10.954;2023-10-31T14:54:03;7.82;;;2.83;;
10343;SDS011;5217;43.960;10.954;2023-10-31T14:56:34;7.00;;;2.60;;
10343;SDS011;5217;43.960;10.954;2023-10-31T14:59:04;8.25;;;3.00;;